createdAt,value
2022-09-15T00:02:07.301Z,15.00
2022-09-15T00:04:36.828Z,14.40
2022-09-15T00:07:06.650Z,15.00
2022-09-15T00:09:37.149Z,13.90
2022-09-15T00:12:07.117Z,14.20
2022-09-15T00:14:36.744Z,15.10
2022-09-15T00:17:06.287Z,14.50
2022-09-15T00:19:36.031Z,14.50
2022-09-15T00:22:05.833Z,14.00
2022-09-15T00:24:35.441Z,13.90
2022-09-15T00:27:05.430Z,14.80
2022-09-15T00:29:35.249Z,13.20
2022-09-15T00:32:05.434Z,15.00
2022-09-15T00:34:35.772Z,13.80
2022-09-15T00:37:05.870Z,13.40
2022-09-15T00:39:35.452Z,13.80
2022-09-15T00:42:06.340Z,13.40
2022-09-15T00:44:38.681Z,13.80
2022-09-15T00:47:19.294Z,14.10
2022-09-15T00:49:59.182Z,14.80
2022-09-15T00:52:40.089Z,14.10
2022-09-15T00:55:17.097Z,14.90
2022-09-15T00:58:09.953Z,13.70
2022-09-15T01:00:45.257Z,13.20
2022-09-15T01:03:15.141Z,13.30
2022-09-15T01:05:54.688Z,13.80
2022-09-15T01:09:10.346Z,13.70
2022-09-15T01:11:41.271Z,13.50
2022-09-15T01:14:10.997Z,12.10
2022-09-15T01:17:05.093Z,13.40
2022-09-15T01:19:46.348Z,14.40
2022-09-15T01:22:42.677Z,14.70
2022-09-15T01:25:29.916Z,15.50
2022-09-15T01:28:43.855Z,16.50
2022-09-15T01:31:24.737Z,16.90
2022-09-15T01:34:11.131Z,16.00
2022-09-15T01:36:56.606Z,14.70
2022-09-15T01:39:33.488Z,15.00
2022-09-15T01:42:09.899Z,13.10
2022-09-15T01:44:59.966Z,13.30
2022-09-15T01:47:32.177Z,13.80
2022-09-15T01:50:27.730Z,13.20
2022-09-15T01:53:04.041Z,12.20
2022-09-15T01:55:45.621Z,12.30
2022-09-15T01:58:14.764Z,15.30
2022-09-15T02:00:52.388Z,16.90
2022-09-15T02:03:41.708Z,17.70
2022-09-15T02:06:25.745Z,16.70
2022-09-15T02:09:19.116Z,13.00
2022-09-15T02:12:22.027Z,13.00
2022-09-15T02:15:16.024Z,12.70
2022-09-15T02:17:56.397Z,18.20
2022-09-15T02:21:00.486Z,19.20
2022-09-15T02:23:42.239Z,23.20
2022-09-15T02:26:18.749Z,22.70
2022-09-15T02:28:50.561Z,22.10
2022-09-15T02:31:24.229Z,22.70
2022-09-15T02:34:04.881Z,20.80
2022-09-15T02:36:34.856Z,20.30
2022-09-15T02:39:13.616Z,21.40
2022-09-15T02:41:43.343Z,20.90
2022-09-15T02:44:17.050Z,17.90
2022-09-15T02:46:46.706Z,20.40
2022-09-15T02:49:15.842Z,18.10
2022-09-15T02:51:48.676Z,18.90
2022-09-15T02:54:20.884Z,18.70
2022-09-15T02:56:50.319Z,18.70
2022-09-15T02:59:20.212Z,18.10
2022-09-15T03:01:49.475Z,18.00
2022-09-15T03:04:18.653Z,18.60
2022-09-15T03:06:48.017Z,18.30
2022-09-15T03:09:17.427Z,17.70
2022-09-15T03:11:46.753Z,18.30
2022-09-15T03:14:16.164Z,16.20
2022-09-15T03:16:45.577Z,15.60
2022-09-15T03:19:15.027Z,16.30
2022-09-15T03:21:44.614Z,15.20
2022-09-15T03:24:16.599Z,16.10
2022-09-15T03:26:46.733Z,14.80
2022-09-15T03:29:16.345Z,16.50
2022-09-15T03:31:45.686Z,15.40
2022-09-15T03:34:15.209Z,15.40
2022-09-15T03:36:44.577Z,15.90
2022-09-15T03:39:17.004Z,14.60
2022-09-15T03:41:46.227Z,12.80
2022-09-15T03:44:15.381Z,12.10
2022-09-15T03:46:44.481Z,11.60
2022-09-15T03:49:14.441Z,11.20
2022-09-15T03:51:43.688Z,11.90
2022-09-15T03:54:13.654Z,11.40
2022-09-15T03:56:43.053Z,11.80
2022-09-15T03:59:12.586Z,12.10
2022-09-15T04:01:41.658Z,10.90
2022-09-15T04:04:11.797Z,10.30
2022-09-15T04:06:42.285Z,10.90
2022-09-15T04:09:11.633Z,9.40
2022-09-15T04:11:41.599Z,8.60
2022-09-15T04:14:10.956Z,8.60
2022-09-15T04:16:40.811Z,9.30
2022-09-15T04:19:10.438Z,8.20
2022-09-15T04:21:43.475Z,6.90
2022-09-15T04:24:12.673Z,6.60
2022-09-15T04:26:42.141Z,5.80
2022-09-15T04:29:17.438Z,5.50
2022-09-15T04:31:47.839Z,6.20
2022-09-15T04:34:16.961Z,6.80
2022-09-15T04:36:46.447Z,8.00
2022-09-15T04:39:16.316Z,7.70
2022-09-15T04:41:45.381Z,7.40
2022-09-15T04:44:14.565Z,7.60
2022-09-15T04:46:44.039Z,7.40
2022-09-15T04:49:13.927Z,7.70
2022-09-15T04:51:43.161Z,7.60
2022-09-15T04:54:12.349Z,7.20
2022-09-15T04:56:41.616Z,8.10
2022-09-15T04:59:18.404Z,8.10
2022-09-15T05:01:48.774Z,7.40
2022-09-15T05:04:17.842Z,7.70
2022-09-15T05:06:47.145Z,7.30
2022-09-15T05:09:16.903Z,7.70
2022-09-15T05:11:46.161Z,7.40
2022-09-15T05:14:15.634Z,7.30
2022-09-15T05:16:45.169Z,7.00
2022-09-15T05:19:14.522Z,7.20
2022-09-15T05:21:44.340Z,7.30
2022-09-15T05:24:13.442Z,7.70
2022-09-15T05:26:42.875Z,8.00
2022-09-15T05:29:11.974Z,7.90
2022-09-15T05:31:41.134Z,7.70
2022-09-15T05:34:11.539Z,7.10
2022-09-15T05:36:40.694Z,7.50
2022-09-15T05:39:10.036Z,7.60
2022-09-15T05:41:39.319Z,7.90
2022-09-15T05:44:08.387Z,7.50
2022-09-15T05:46:37.596Z,7.70
2022-09-15T05:49:07.623Z,8.00
2022-09-15T05:51:37.738Z,7.60
2022-09-15T05:54:07.778Z,7.30
2022-09-15T05:56:36.884Z,7.20
2022-09-15T05:59:06.261Z,7.00
2022-09-15T06:01:35.631Z,7.00
2022-09-15T06:04:04.824Z,7.20
2022-09-15T06:06:34.718Z,6.90
2022-09-15T06:09:07.992Z,7.30
2022-09-15T06:11:37.469Z,7.60
2022-09-15T06:14:07.192Z,7.50
2022-09-15T06:16:37.374Z,7.20
2022-09-15T06:19:07.519Z,7.20
2022-09-15T06:21:36.862Z,7.50
2022-09-15T06:24:08.047Z,6.90
2022-09-15T06:26:38.006Z,7.40
2022-09-15T06:29:07.869Z,6.80
2022-09-15T06:31:37.417Z,7.80
2022-09-15T06:34:07.741Z,7.60
2022-09-15T06:36:40.086Z,7.90
2022-09-15T06:39:09.705Z,7.60
2022-09-15T06:41:58.811Z,7.40
2022-09-15T06:44:28.527Z,7.30
2022-09-15T06:46:57.653Z,6.80
2022-09-15T06:49:27.186Z,7.30
2022-09-15T06:51:57.742Z,7.10
2022-09-15T06:54:26.968Z,7.40
2022-09-15T06:56:56.113Z,7.70
2022-09-15T06:59:25.705Z,7.00
2022-09-15T07:01:57.127Z,6.30
2022-09-15T07:04:26.912Z,7.20
2022-09-15T07:06:56.507Z,6.70
2022-09-15T07:09:25.655Z,6.00
2022-09-15T07:11:55.140Z,7.30
2022-09-15T07:14:24.343Z,6.40
2022-09-15T07:16:53.461Z,7.00
2022-09-15T07:19:22.842Z,7.00
2022-09-15T07:21:53.869Z,7.00
2022-09-15T07:24:23.030Z,6.40
2022-09-15T07:26:53.090Z,6.90
2022-09-15T07:29:22.541Z,7.00
2022-09-15T07:31:51.979Z,5.80
2022-09-15T07:34:22.338Z,6.60
2022-09-15T07:36:51.915Z,6.00
2022-09-15T07:39:21.017Z,6.20
2022-09-15T07:41:50.207Z,6.20
2022-09-15T07:44:19.377Z,6.20
2022-09-15T07:46:48.589Z,6.20
2022-09-15T07:49:18.023Z,6.50
2022-09-15T07:51:47.703Z,6.20
2022-09-15T07:54:21.083Z,6.90
2022-09-15T07:56:51.856Z,6.00
2022-09-15T07:59:21.002Z,6.20
2022-09-15T08:01:53.373Z,6.10
2022-09-15T08:04:22.732Z,5.90
2022-09-15T08:06:53.615Z,6.20
2022-09-15T08:09:23.041Z,6.40
2022-09-15T08:11:52.272Z,6.00
2022-09-15T08:14:21.326Z,6.20
2022-09-15T08:16:50.624Z,5.70
2022-09-15T08:19:21.910Z,6.00
2022-09-15T08:21:51.012Z,6.10
2022-09-15T08:24:20.252Z,5.70
2022-09-15T08:26:49.656Z,6.40
2022-09-15T08:29:20.701Z,5.70
2022-09-15T08:31:50.253Z,6.20
2022-09-15T08:34:19.986Z,6.10
2022-09-15T08:36:49.323Z,6.20
2022-09-15T08:39:19.267Z,6.20
2022-09-15T08:41:53.121Z,5.90
2022-09-15T08:44:51.500Z,5.80
2022-09-15T08:47:42.428Z,5.70
2022-09-15T08:50:36.877Z,5.60
2022-09-15T08:53:30.491Z,5.90
2022-09-15T08:56:09.888Z,6.10
2022-09-15T08:58:40.142Z,5.90
2022-09-15T09:01:52.142Z,5.60
2022-09-15T09:04:59.370Z,5.90
2022-09-15T09:08:35.394Z,6.00
2022-09-15T09:12:04.946Z,6.20
2022-09-15T09:15:07.678Z,6.60
2022-09-15T09:18:11.090Z,6.20
2022-09-15T09:20:50.965Z,6.40
2022-09-15T09:23:29.199Z,5.50
2022-09-15T09:25:59.731Z,6.20
2022-09-15T09:28:47.038Z,6.50
2022-09-15T09:31:24.339Z,6.60
2022-09-15T09:34:17.710Z,6.00
2022-09-15T09:36:46.935Z,6.00
2022-09-15T09:39:16.914Z,6.40
2022-09-15T09:41:47.162Z,6.10
2022-09-15T09:44:16.967Z,5.70
2022-09-15T09:46:47.789Z,5.80
2022-09-15T09:49:35.610Z,5.50
2022-09-15T09:52:06.110Z,6.10
2022-09-15T09:54:37.024Z,5.70
2022-09-15T09:57:15.584Z,5.80
2022-09-15T09:59:50.912Z,5.60
2022-09-15T10:02:22.716Z,5.60
2022-09-15T10:05:19.742Z,5.80
2022-09-15T10:07:49.779Z,5.90
2022-09-15T10:10:33.519Z,6.10
2022-09-15T10:13:05.478Z,5.60
2022-09-15T10:15:38.053Z,5.90
2022-09-15T10:18:07.953Z,5.90
2022-09-15T10:20:50.956Z,5.40
2022-09-15T10:23:19.943Z,5.30
2022-09-15T10:25:59.183Z,5.70
2022-09-15T10:28:30.435Z,5.20
2022-09-15T10:31:08.484Z,5.70
2022-09-15T10:33:42.892Z,5.60
2022-09-15T10:36:29.969Z,6.10
2022-09-15T10:40:01.711Z,6.10
2022-09-15T10:42:57.859Z,5.80
2022-09-15T10:45:29.232Z,5.60
2022-09-15T10:48:13.046Z,5.80
2022-09-15T10:50:42.404Z,5.50
2022-09-15T10:53:45.863Z,5.90
2022-09-15T10:56:38.320Z,5.70
2022-09-15T10:59:36.595Z,5.40
2022-09-15T11:02:27.476Z,5.60
2022-09-15T11:05:24.891Z,5.40
2022-09-15T11:08:42.128Z,5.80
2022-09-15T11:11:35.508Z,5.70
2022-09-15T11:14:34.892Z,5.20
2022-09-15T11:17:44.546Z,5.70
2022-09-15T11:20:36.354Z,5.40
2022-09-15T11:23:29.919Z,5.60
2022-09-15T11:26:09.353Z,6.00
2022-09-15T11:29:18.942Z,5.40
2022-09-15T11:31:56.644Z,5.40
2022-09-15T11:35:10.098Z,5.60
2022-09-15T11:37:47.214Z,5.70
2022-09-15T11:40:29.882Z,5.40
2022-09-15T11:43:18.698Z,6.00
2022-09-15T11:45:57.869Z,6.20
2022-09-15T11:48:43.613Z,6.00
2022-09-15T11:51:17.014Z,5.70
2022-09-15T11:54:32.821Z,6.10
2022-09-15T11:57:02.259Z,5.40
2022-09-15T11:59:45.588Z,6.10
2022-09-15T12:02:46.081Z,5.50
2022-09-15T12:05:59.307Z,6.10
2022-09-15T12:08:33.605Z,6.00
2022-09-15T12:11:10.428Z,5.80
2022-09-15T12:13:42.527Z,5.60
2022-09-15T12:16:13.462Z,5.30
2022-09-15T12:19:13.425Z,5.30
2022-09-15T12:22:16.221Z,6.00
2022-09-15T12:25:23.598Z,5.30
2022-09-15T12:28:23.944Z,5.40
2022-09-15T12:31:26.601Z,5.70
2022-09-15T12:34:36.253Z,5.50
2022-09-15T12:37:16.437Z,5.90
2022-09-15T12:39:48.641Z,5.70
2022-09-15T12:42:32.974Z,5.60
2022-09-15T12:45:26.536Z,5.10
2022-09-15T12:48:17.334Z,5.10
2022-09-15T12:51:06.288Z,5.30
2022-09-15T12:53:50.549Z,5.50
2022-09-15T12:56:35.539Z,5.70
2022-09-15T12:59:16.912Z,5.30
2022-09-15T13:01:52.778Z,5.70
2022-09-15T13:04:47.522Z,5.30
2022-09-15T13:07:22.129Z,4.90
2022-09-15T13:10:11.768Z,6.20
2022-09-15T13:12:50.838Z,6.20
2022-09-15T13:15:21.681Z,5.70
2022-09-15T13:17:51.942Z,5.70
2022-09-15T13:20:32.014Z,6.10
2022-09-15T13:23:04.754Z,5.20
2022-09-15T13:25:34.973Z,5.30
2022-09-15T13:28:05.713Z,5.30
2022-09-15T13:31:08.885Z,5.30
2022-09-15T13:40:50.650Z,6.60
2022-09-15T13:43:41.144Z,6.70
2022-09-15T13:46:42.420Z,6.10
2022-09-15T13:49:46.278Z,5.90
2022-09-15T13:53:01.559Z,7.00
2022-09-15T13:55:36.180Z,6.60
2022-09-15T14:01:12.445Z,6.20
2022-09-15T14:03:47.644Z,6.60
2022-09-15T14:06:28.219Z,6.80
2022-09-15T14:09:05.753Z,6.20
2022-09-15T14:11:39.042Z,5.80
2022-09-15T14:14:40.491Z,6.20
2022-09-15T14:17:25.054Z,6.10
2022-09-15T14:19:57.484Z,6.20
2022-09-15T14:22:36.401Z,6.10
2022-09-15T14:25:21.130Z,6.40
2022-09-15T14:27:54.499Z,6.00
2022-09-15T14:30:33.379Z,6.10
2022-09-15T14:33:05.092Z,6.00
2022-09-15T14:35:40.737Z,6.40
2022-09-15T14:38:27.485Z,6.60
2022-09-15T14:41:00.545Z,6.10
2022-09-15T14:43:36.636Z,6.20
2022-09-15T14:46:21.891Z,6.80
2022-09-15T14:48:51.652Z,6.80
2022-09-15T14:51:34.265Z,6.70
2022-09-15T14:54:05.833Z,6.90
2022-09-15T14:56:38.794Z,7.30
2022-09-15T14:59:20.176Z,6.90
2022-09-15T15:02:39.631Z,6.90
2022-09-15T15:05:20.426Z,6.30
2022-09-15T15:07:51.104Z,8.00
2022-09-15T15:10:35.918Z,6.80
2022-09-15T15:13:18.683Z,6.60
2022-09-15T15:15:48.445Z,6.50
2022-09-15T15:18:40.345Z,7.10
2022-09-15T15:21:38.076Z,7.50
2022-09-15T15:24:20.577Z,7.30
2022-09-15T15:26:52.206Z,7.60
2022-09-15T15:29:44.090Z,6.90
2022-09-15T15:32:21.827Z,6.50
2022-09-15T15:35:02.663Z,7.20
2022-09-15T15:37:36.517Z,7.10
2022-09-15T15:40:14.555Z,7.30
2022-09-15T15:43:08.267Z,7.00
2022-09-15T15:45:51.081Z,6.80
2022-09-15T15:48:20.262Z,7.50
2022-09-15T15:50:49.475Z,7.30
2022-09-15T15:53:18.940Z,7.60
2022-09-15T15:55:48.138Z,8.40
2022-09-15T15:58:18.169Z,8.20
2022-09-15T16:00:51.294Z,7.50
2022-09-15T16:03:23.018Z,7.90
2022-09-15T16:06:01.436Z,8.00
2022-09-15T16:08:35.571Z,7.50
2022-09-15T16:11:05.899Z,7.80
2022-09-15T16:13:35.296Z,7.80
2022-09-15T16:16:17.910Z,9.30
2022-09-15T16:18:47.600Z,8.40
2022-09-15T16:21:44.845Z,7.20
2022-09-15T16:24:17.866Z,7.70
2022-09-15T16:26:48.640Z,8.30
2022-09-15T16:29:21.397Z,8.60
2022-09-15T16:31:51.191Z,8.70
2022-09-15T16:34:20.706Z,8.20
2022-09-15T16:36:49.868Z,7.50
2022-09-15T16:39:22.500Z,7.60
2022-09-15T16:41:51.751Z,7.10
2022-09-15T16:44:22.994Z,7.60
2022-09-15T16:46:52.295Z,7.70
2022-09-15T16:49:21.644Z,7.50
2022-09-15T16:51:51.175Z,8.00
2022-09-15T16:54:23.128Z,7.30
2022-09-15T16:56:53.121Z,8.30
2022-09-15T16:59:22.532Z,8.60
2022-09-15T17:01:52.325Z,7.60
2022-09-15T17:04:21.612Z,7.40
2022-09-15T17:06:50.956Z,7.20
2022-09-15T17:09:20.245Z,8.10
2022-09-15T17:11:50.038Z,8.00
2022-09-15T17:14:19.720Z,7.30
2022-09-15T17:16:53.795Z,8.00
2022-09-15T17:19:23.448Z,7.60
2022-09-15T17:21:54.330Z,7.80
2022-09-15T17:24:23.601Z,7.10
2022-09-15T17:26:52.937Z,8.00
2022-09-15T17:29:22.200Z,7.90
2022-09-15T17:31:51.394Z,7.50
2022-09-15T17:34:20.636Z,7.80
2022-09-15T17:36:49.703Z,7.60
2022-09-15T17:39:19.040Z,8.40
2022-09-15T17:41:48.479Z,8.00
2022-09-15T17:44:17.992Z,7.70
2022-09-15T17:46:47.119Z,8.30
2022-09-15T17:49:16.561Z,7.80
2022-09-15T17:51:45.852Z,8.10
2022-09-15T17:54:15.032Z,8.30
2022-09-15T17:56:47.227Z,9.30
2022-09-15T17:59:17.110Z,8.40
2022-09-15T18:01:46.672Z,8.00
2022-09-15T18:04:15.976Z,8.30
2022-09-15T18:06:45.758Z,8.10
2022-09-15T18:09:16.073Z,8.50
2022-09-15T18:11:45.509Z,8.30
2022-09-15T18:14:14.697Z,7.40
2022-09-15T18:16:44.349Z,7.50
2022-09-15T18:19:13.371Z,8.50
2022-09-15T18:21:43.625Z,7.40
2022-09-15T18:24:17.073Z,7.50
2022-09-15T18:26:46.825Z,7.90
2022-09-15T18:29:15.992Z,7.80
2022-09-15T18:31:45.974Z,7.70
2022-09-15T18:34:15.351Z,7.60
2022-09-15T18:36:44.630Z,7.40
2022-09-15T18:39:13.730Z,7.00
2022-09-15T18:41:43.446Z,7.60
2022-09-15T18:44:13.299Z,7.50
2022-09-15T18:46:42.516Z,7.30
2022-09-15T18:49:11.737Z,6.90
2022-09-15T18:51:51.633Z,7.50
2022-09-15T18:54:21.233Z,7.80
2022-09-15T18:56:50.401Z,7.30
2022-09-15T18:59:20.359Z,7.80
2022-09-15T19:01:49.920Z,7.60
2022-09-15T19:04:19.087Z,7.70
2022-09-15T19:06:48.378Z,7.70
2022-09-15T19:09:17.957Z,7.50
2022-09-15T19:11:47.158Z,7.70
2022-09-15T19:14:16.334Z,8.20
2022-09-15T19:16:57.652Z,7.70
2022-09-15T19:19:28.254Z,7.20
2022-09-15T19:21:57.442Z,8.20
2022-09-15T19:24:33.205Z,7.80
2022-09-15T19:27:07.500Z,7.60
2022-09-15T19:29:38.836Z,7.20
2022-09-15T19:32:12.837Z,7.10
2022-09-15T19:34:45.772Z,7.40
2022-09-15T19:37:20.924Z,7.20
2022-09-15T19:39:51.548Z,6.90
2022-09-15T19:42:20.672Z,7.40
2022-09-15T19:44:50.515Z,7.00
2022-09-15T19:47:20.074Z,7.30
2022-09-15T19:49:49.310Z,8.00
2022-09-15T19:52:18.576Z,8.20
2022-09-15T19:54:49.115Z,8.00
2022-09-15T19:57:18.521Z,8.40
2022-09-15T19:59:47.607Z,8.00
2022-09-15T20:02:17.468Z,8.10
2022-09-15T20:04:47.585Z,8.90
2022-09-15T20:07:16.813Z,8.40
2022-09-15T20:09:46.131Z,8.00
2022-09-15T20:12:15.436Z,8.90
2022-09-15T20:14:44.647Z,8.10
2022-09-15T20:17:14.321Z,8.50
2022-09-15T20:19:43.589Z,7.70
2022-09-15T20:22:12.760Z,7.80
2022-09-15T20:24:42.360Z,7.90
2022-09-15T20:27:12.271Z,8.10
2022-09-15T20:29:41.499Z,8.30
2022-09-15T20:32:11.122Z,8.10
2022-09-15T20:34:40.621Z,7.90
2022-09-15T20:37:09.748Z,7.70
2022-09-15T20:39:39.139Z,8.00
2022-09-15T20:42:08.414Z,8.20
2022-09-15T20:44:37.510Z,7.90
2022-09-15T20:47:06.916Z,7.90
2022-09-15T20:49:36.067Z,8.40
2022-09-15T20:52:05.331Z,7.90
2022-09-15T20:54:35.463Z,7.80
2022-09-15T20:57:04.698Z,7.70
2022-09-15T20:59:33.847Z,8.40
2022-09-15T21:02:06.010Z,7.80
2022-09-15T21:04:35.687Z,8.40
2022-09-15T21:07:05.082Z,7.80
2022-09-15T21:09:37.593Z,8.40
2022-09-15T21:12:07.154Z,8.10
2022-09-15T21:14:36.378Z,8.10
2022-09-15T21:17:05.837Z,7.80
2022-09-15T21:19:35.474Z,8.00
2022-09-15T21:22:04.981Z,8.10
2022-09-15T21:24:34.277Z,7.80
2022-09-15T21:27:24.299Z,7.60
2022-09-15T21:29:53.600Z,7.40
2022-09-15T21:32:23.022Z,7.50
2022-09-15T21:34:51.994Z,7.20
2022-09-15T21:37:21.439Z,7.80
2022-09-15T21:39:51.028Z,7.70
2022-09-15T21:42:20.897Z,7.70
2022-09-15T21:44:49.943Z,7.70
2022-09-15T21:47:20.322Z,7.70
2022-09-15T21:49:49.622Z,8.30
2022-09-15T21:52:18.782Z,7.40
2022-09-15T21:54:48.351Z,6.90
2022-09-15T21:57:17.665Z,6.80
2022-09-15T21:59:47.500Z,8.10
2022-09-15T22:02:18.377Z,7.70
2022-09-15T22:04:47.792Z,7.70
2022-09-15T22:07:18.411Z,7.20
2022-09-15T22:09:48.619Z,7.70
2022-09-15T22:12:17.799Z,7.50
2022-09-15T22:14:47.145Z,7.60
2022-09-15T22:17:16.179Z,7.00
2022-09-15T22:19:45.365Z,7.30
2022-09-15T22:22:15.386Z,8.10
2022-09-15T22:24:44.408Z,7.50
2022-09-15T22:27:13.501Z,6.90
2022-09-15T22:29:43.032Z,7.90
2022-09-15T22:32:11.998Z,7.20
2022-09-15T22:34:41.168Z,7.40
2022-09-15T22:37:10.572Z,8.30
2022-09-15T22:39:57.955Z,8.10
2022-09-15T22:42:28.681Z,7.30
2022-09-15T22:44:58.048Z,7.50
2022-09-15T22:47:27.230Z,7.70
2022-09-15T22:49:56.594Z,7.80
2022-09-15T22:52:25.796Z,7.40
2022-09-15T22:54:54.861Z,7.70
2022-09-15T22:57:23.863Z,7.10
2022-09-15T22:59:53.449Z,7.90
2022-09-15T23:02:23.064Z,7.80
2022-09-15T23:04:55.373Z,7.20
2022-09-15T23:07:24.714Z,7.30
2022-09-15T23:09:54.171Z,7.50
2022-09-15T23:12:23.547Z,6.90
2022-09-15T23:14:52.579Z,7.30
2022-09-15T23:17:21.925Z,8.20
2022-09-15T23:19:51.390Z,6.50
2022-09-15T23:22:20.721Z,7.10
2022-09-15T23:24:50.140Z,7.10
2022-09-15T23:27:19.581Z,7.50
2022-09-15T23:29:48.956Z,7.30
2022-09-15T23:32:18.613Z,7.40
2022-09-15T23:34:47.960Z,6.50
2022-09-15T23:37:17.371Z,6.00
2022-09-15T23:39:46.817Z,6.70
2022-09-15T23:42:18.920Z,7.70
2022-09-15T23:44:49.098Z,7.30
2022-09-15T23:47:18.156Z,7.50
2022-09-15T23:49:47.428Z,7.30
2022-09-15T23:52:16.520Z,7.10
2022-09-15T23:54:49.024Z,7.30
2022-09-15T23:57:18.291Z,6.60
2022-09-15T23:59:48.403Z,6.90
